Time;durP1;ratioP1;P1;durP2;ratioP2;P2;SDS_P1;SDS_P2;PMS_P1;PMS_P2;Temp;Humidity;BMP_temperature;BMP_pressure;BME280_temperature;BME280_humidity;BME280_pressure;Samples;Min_cycle;Max_cycle;Signal;HPM_P1;HPM_P2
2022/01/08 00:00:54;;;;;;;5.17;3.77;;;;;;;4.87;84.12;94903.88;5155268;27;20254;-81
2022/01/08 00:03:20;;;;;;;4.20;3.30;;;;;;;4.76;83.98;94895.63;5155050;27;20203;-81
2022/01/08 00:05:48;;;;;;;3.97;3.47;;;;;;;4.76;83.68;94893.84;5155417;27;20210;-81
2022/01/08 00:08:13;;;;;;;6.27;3.93;;;;;;;4.81;83.92;94907.19;5155166;27;20203;-81
2022/01/08 00:10:40;;;;;;;5.83;3.63;;;;;;;4.72;84.38;94910.03;5154913;27;20609;-81
2022/01/08 00:13:06;;;;;;;5.07;3.67;;;;;;;4.71;84.11;94883.13;5154964;27;20164;-81
2022/01/08 00:15:32;;;;;;;4.10;3.30;;;;;;;4.74;83.71;94881.97;5155212;27;20167;-81
2022/01/08 00:17:58;;;;;;;5.10;3.43;;;;;;;4.68;83.54;94854.78;5155686;27;20194;-81
2022/01/08 00:20:24;;;;;;;6.63;3.53;;;;;;;4.93;83.13;94890.13;5154997;27;20250;-81
2022/01/08 00:22:53;;;;;;;4.37;3.27;;;;;;;4.83;83.50;94873.13;5154256;27;20168;-81
2022/01/08 00:25:19;;;;;;;5.27;3.50;;;;;;;4.61;84.62;94861.69;5135578;27;20209;-81
2022/01/08 00:27:46;;;;;;;4.97;3.20;;;;;;;4.67;84.30;94868.81;5136114;27;20652;-81
2022/01/08 00:30:13;;;;;;;4.00;3.20;;;;;;;4.68;84.16;94867.81;5154475;27;20219;-79
2022/01/08 00:32:40;;;;;;;5.83;3.83;;;;;;;4.77;84.19;94869.41;5154559;27;20187;-81
2022/01/08 00:35:09;;;;;;;4.43;3.00;;;;;;;4.60;84.09;94875.72;5154527;27;20215;-81
2022/01/08 00:37:37;;;;;;;5.17;3.77;;;;;;;4.50;84.69;94852.47;5153924;27;20202;-81
2022/01/08 00:40:04;;;;;;;4.93;3.30;;;;;;;4.60;85.01;94859.25;5135850;27;20235;-81
2022/01/08 00:42:29;;;;;;;4.97;3.47;;;;;;;4.66;84.35;94867.22;5154298;27;20171;-81
2022/01/08 00:44:55;;;;;;;4.00;3.27;;;;;;;4.57;84.22;94862.22;5154451;27;21092;-81
2022/01/08 00:47:20;;;;;;;6.47;3.93;;;;;;;4.43;84.94;94846.34;5154506;27;20168;-81
2022/01/08 00:49:46;;;;;;;6.47;4.77;;;;;;;4.62;84.44;94873.75;5135966;27;20174;-81
2022/01/08 00:52:11;;;;;;;5.03;3.63;;;;;;;4.68;84.51;94880.88;5154732;27;20172;-81
2022/01/08 00:54:38;;;;;;;4.90;3.77;;;;;;;4.66;84.02;94874.22;5135410;27;20721;-81
2022/01/08 00:57:04;;;;;;;5.10;3.47;;;;;;;4.62;83.90;94865.94;5154194;27;20225;-81
2022/01/08 00:59:30;;;;;;;4.83;3.37;;;;;;;4.32;84.77;94827.72;5154178;27;20664;-81
2022/01/08 01:01:55;;;;;;;6.13;3.60;;;;;;;4.53;84.89;94869.56;5152635;27;20183;-81
2022/01/08 01:04:21;;;;;;;5.37;3.43;;;;;;;4.37;84.84;94847.03;5154045;27;20182;-81
2022/01/08 01:06:46;;;;;;;4.50;3.20;;;;;;;4.58;85.22;94862.06;5154039;27;20267;-81
2022/01/08 01:09:12;;;;;;;3.67;2.83;;;;;;;4.35;84.64;94806.50;5153778;27;20176;-81
2022/01/08 01:11:37;;;;;;;4.47;3.30;;;;;;;4.58;84.40;94841.22;5154252;27;20255;-81
2022/01/08 01:14:03;;;;;;;4.10;3.20;;;;;;;4.39;84.06;94820.81;5153773;27;20631;-81
2022/01/08 01:16:28;;;;;;;3.77;2.93;;;;;;;4.62;84.69;94844.25;5153879;27;20581;-81
2022/01/08 01:18:55;;;;;;;3.43;3.13;;;;;;;4.49;84.21;94818.81;5153792;27;20172;-81
2022/01/08 01:21:20;;;;;;;4.17;3.03;;;;;;;4.48;84.37;94846.66;5153764;27;20190;-81
2022/01/08 01:23:47;;;;;;;3.43;2.70;;;;;;;4.31;84.57;94816.47;5153185;27;20160;-81
2022/01/08 01:26:17;;;;;;;4.90;3.07;;;;;;;4.39;85.27;94836.44;5154546;27;20179;-81
2022/01/08 01:41:55;;;;;;;4.07;2.90;;;;;;;4.42;85.36;94823.88;5154486;27;20162;-81
2022/01/08 01:47:05;;;;;;;4.27;2.90;;;;;;;4.50;84.80;94797.75;5154393;27;20158;-81
2022/01/08 01:49:32;;;;;;;4.40;2.70;;;;;;;4.64;84.25;94808.41;5153134;27;20262;-81
2022/01/08 01:51:59;;;;;;;3.53;2.60;;;;;;;4.66;83.85;94807.25;5153600;27;20187;-81
2022/01/08 01:54:27;;;;;;;3.43;2.50;;;;;;;4.53;84.46;94815.66;5153551;27;20243;-81
2022/01/08 01:56:54;;;;;;;3.67;2.43;;;;;;;4.51;84.72;94806.38;5153806;27;20195;-81
2022/01/08 01:59:20;;;;;;;2.80;2.10;;;;;;;4.50;84.49;94783.91;5153511;27;20179;-80
2022/01/08 02:01:45;;;;;;;3.40;2.80;;;;;;;4.22;84.61;94748.97;5153819;27;20159;-81
2022/01/08 02:04:11;;;;;;;5.33;2.77;;;;;;;4.25;84.84;94749.41;5134859;27;20669;-81
2022/01/08 02:06:36;;;;;;;3.23;2.53;;;;;;;4.17;84.49;94734.66;5153236;27;20183;-81
2022/01/08 02:09:02;;;;;;;6.67;2.77;;;;;;;4.46;85.02;94787.88;5134709;27;20190;-81
2022/01/08 02:11:27;;;;;;;3.27;2.40;;;;;;;4.39;85.03;94784.34;5134626;27;20233;-81
2022/01/08 02:14:02;;;;;;;3.53;2.33;;;;;;;4.17;85.71;94760.72;5153632;27;20179;-81
2022/01/08 02:16:27;;;;;;;3.13;2.80;;;;;;;4.12;85.64;94757.03;5153828;27;20159;-81
2022/01/08 02:18:52;;;;;;;3.23;2.43;;;;;;;4.20;86.00;94775.19;5153188;27;20186;-81
2022/01/08 02:21:18;;;;;;;8.30;2.80;;;;;;;3.91;86.38;94726.38;5153277;27;20184;-81
2022/01/08 02:23:43;;;;;;;3.67;2.93;;;;;;;3.97;86.86;94736.13;5153271;27;20168;-81
2022/01/08 02:26:10;;;;;;;3.30;2.40;;;;;;;4.28;86.53;94764.72;5153400;27;20258;-79
2022/01/08 02:28:37;;;;;;;3.43;2.43;;;;;;;4.25;85.61;94743.41;5153478;27;20183;-79
2022/01/08 02:31:04;;;;;;;5.03;2.70;;;;;;;4.20;86.18;94758.75;5153905;27;20608;-79
2022/01/08 02:33:29;;;;;;;3.63;2.80;;;;;;;4.05;86.87;94735.25;5153774;27;20168;-79
2022/01/08 02:35:56;;;;;;;3.93;2.80;;;;;;;4.29;86.44;94749.88;5135178;27;20186;-80
2022/01/08 02:38:22;;;;;;;5.97;5.37;;;;;;;4.27;86.34;94731.81;5156569;27;20195;-79
2022/01/08 02:40:55;;;;;;;7.77;3.27;;;;;;;4.12;86.24;94703.13;5156598;27;20216;-79
2022/01/08 02:43:23;;;;;;;4.10;2.90;;;;;;;4.16;85.82;94707.00;5156776;27;20591;-80
2022/01/08 02:45:48;;;;;;;3.23;2.57;;;;;;;4.08;86.33;94704.44;5156537;27;20174;-81
2022/01/08 02:48:14;;;;;;;2.77;2.20;;;;;;;4.42;86.04;94737.06;5156661;27;20168;-80
2022/01/08 02:50:39;;;;;;;52.53;13.03;;;;;;;4.38;86.11;94734.03;5156776;27;21033;-80
2022/01/08 02:53:04;;;;;;;3.60;2.90;;;;;;;4.44;86.20;94732.50;5156372;27;20171;-80
2022/01/08 02:55:30;;;;;;;5.07;3.10;;;;;;;4.32;85.97;94724.31;5156437;27;20171;-80
2022/01/08 02:57:55;;;;;;;3.73;2.47;;;;;;;4.48;85.75;94734.59;5156860;27;20191;-80
2022/01/08 03:00:21;;;;;;;4.13;2.70;;;;;;;4.51;85.44;94736.00;5156533;27;20174;-80
2022/01/08 03:02:49;;;;;;;4.03;2.60;;;;;;;4.62;85.32;94737.38;5156403;27;20666;-80
2022/01/08 03:05:15;;;;;;;3.10;2.57;;;;;;;4.41;84.87;94701.59;5156310;27;20184;-80
2022/01/08 03:07:44;;;;;;;3.87;2.83;;;;;;;4.66;84.97;94736.88;5156631;27;20186;-80
2022/01/08 03:10:11;;;;;;;3.77;2.60;;;;;;;4.60;85.34;94740.16;5156428;27;20204;-80
2022/01/08 03:12:41;;;;;;;3.90;2.67;;;;;;;4.37;85.21;94695.09;5156568;27;20172;-80
2022/01/08 03:15:11;;;;;;;2.73;2.53;;;;;;;4.46;85.50;94715.72;5156501;27;20216;-80
2022/01/08 03:17:38;;;;;;;3.80;2.67;;;;;;;4.60;85.63;94737.56;5137932;27;20187;-80
2022/01/08 03:20:06;;;;;;;4.77;3.23;;;;;;;4.52;85.50;94735.84;5156005;27;20258;-80
2022/01/08 03:22:33;;;;;;;3.23;2.53;;;;;;;4.46;86.06;94739.16;5156277;27;20144;-80
2022/01/08 03:25:00;;;;;;;3.83;2.87;;;;;;;4.33;86.05;94720.69;5156076;27;20231;-80
2022/01/08 03:27:26;;;;;;;3.67;2.77;;;;;;;4.45;85.90;94729.72;5155650;27;20176;-81
2022/01/08 03:29:51;;;;;;;3.10;2.50;;;;;;;4.32;85.75;94693.06;5155599;27;20279;-83
2022/01/08 03:32:17;;;;;;;3.23;2.43;;;;;;;4.38;85.81;94701.94;5137265;27;20267;-81
2022/01/08 03:34:42;;;;;;;3.40;2.73;;;;;;;4.48;85.59;94724.16;5155799;27;20183;-81
2022/01/08 03:37:07;;;;;;;3.17;2.77;;;;;;;4.06;85.71;94672.59;5156304;27;20190;-81
2022/01/08 03:39:33;;;;;;;3.60;2.77;;;;;;;4.14;85.98;94675.13;5156166;27;20244;-82
2022/01/08 03:41:59;;;;;;;3.00;2.40;;;;;;;4.48;86.15;94723.34;5155773;27;20167;-82
2022/01/08 03:44:24;;;;;;;42.07;21.70;;;;;;;4.51;85.98;94730.81;5155638;27;20175;-81
2022/01/08 03:46:50;;;;;;;3.13;2.77;;;;;;;4.51;86.10;94702.94;5155575;27;20247;-82
2022/01/08 03:49:25;;;;;;;2.93;2.63;;;;;;;4.34;86.13;94690.25;5136603;27;20228;-81
2022/01/08 03:51:55;;;;;;;23.43;20.93;;;;;;;4.30;86.45;94673.34;5155466;27;20170;-81
2022/01/08 03:54:22;;;;;;;3.93;2.80;;;;;;;4.16;86.58;94665.31;5155397;27;20191;-82
2022/01/08 03:56:47;;;;;;;3.33;2.73;;;;;;;3.94;86.88;94641.94;5137290;27;20198;-83
2022/01/08 03:59:12;;;;;;;3.17;2.30;;;;;;;3.98;86.80;94628.38;5137426;27;20547;-83
2022/01/08 04:01:38;;;;;;;3.70;2.73;;;;;;;4.43;86.66;94697.81;5137627;27;20160;-82
2022/01/08 04:04:04;;;;;;;3.77;2.60;;;;;;;4.42;86.68;94697.97;5154551;27;20189;-82
2022/01/08 04:06:29;;;;;;;4.43;3.13;;;;;;;4.20;86.88;94650.16;5135988;27;20160;-82
2022/01/08 04:08:58;;;;;;;3.27;2.60;;;;;;;4.35;86.92;94669.22;5135894;27;20203;-82
2022/01/08 04:11:25;;;;;;;4.10;2.93;;;;;;;4.23;86.97;94662.03;5154503;27;20171;-83
2022/01/08 04:13:51;;;;;;;2.93;2.50;;;;;;;4.41;86.79;94681.53;5154762;27;20179;-82
2022/01/08 04:16:21;;;;;;;3.73;2.47;;;;;;;4.24;86.66;94655.84;5154889;27;20159;-82
2022/01/08 04:18:47;;;;;;;3.43;2.70;;;;;;;4.05;86.35;94636.31;5154960;27;20180;-82
2022/01/08 04:23:41;;;;;;;4.37;2.87;;;;;;;4.47;86.93;94700.88;5155124;27;20201;-82
2022/01/08 04:26:06;;;;;;;3.93;2.87;;;;;;;4.14;86.26;94656.91;5155194;27;20203;-83
2022/01/08 04:28:32;;;;;;;100.47;74.57;;;;;;;4.48;86.43;94700.72;5154430;27;20182;-82
2022/01/08 04:30:57;;;;;;;4.27;3.00;;;;;;;4.36;86.05;94691.69;5154516;27;20271;-83
2022/01/08 04:33:23;;;;;;;4.20;2.60;;;;;;;4.46;86.59;94699.25;5154652;27;20166;-82
2022/01/08 04:35:48;;;;;;;5.23;2.67;;;;;;;4.26;86.60;94656.44;5154494;27;20171;-82
2022/01/08 04:38:13;;;;;;;5.90;2.70;;;;;;;4.55;86.18;94687.78;5135944;27;20769;-82
2022/01/08 04:40:40;;;;;;;3.63;3.07;;;;;;;4.43;85.77;94658.72;5154875;27;20202;-82
2022/01/08 04:43:06;;;;;;;3.67;2.40;;;;;;;4.61;85.99;94700.09;5154738;27;20148;-83
2022/01/08 04:45:31;;;;;;;4.20;2.90;;;;;;;4.37;86.03;94676.88;5135834;27;20232;-82
2022/01/08 04:47:59;;;;;;;4.30;2.73;;;;;;;4.63;85.85;94702.53;5135613;27;20168;-82
2022/01/08 04:50:26;;;;;;;5.40;3.20;;;;;;;4.23;86.38;94654.22;5135831;27;20167;-82
2022/01/08 04:52:51;;;;;;;6.33;3.10;;;;;;;4.23;86.52;94651.63;5135746;27;20580;-82
2022/01/08 04:55:17;;;;;;;5.97;3.27;;;;;;;4.27;86.33;94652.88;5135633;27;20179;-82
2022/01/08 04:57:43;;;;;;;6.27;3.70;;;;;;;4.50;86.64;94690.91;5154459;27;20180;-82
2022/01/08 05:00:09;;;;;;;6.80;2.93;;;;;;;4.38;86.58;94679.31;5153516;27;20171;-83
2022/01/08 05:02:35;;;;;;;7.30;4.00;;;;;;;4.18;86.46;94633.91;5154356;27;20268;-82
2022/01/08 05:05:00;;;;;;;4.10;3.10;;;;;;;4.55;86.54;94693.81;5135513;27;20208;-82
2022/01/08 05:07:26;;;;;;;5.60;2.93;;;;;;;4.35;86.99;94655.38;5153984;27;20220;-83
2022/01/08 05:09:51;;;;;;;5.00;2.93;;;;;;;4.20;86.29;94631.13;5154699;27;20166;-82
2022/01/08 05:12:16;;;;;;;5.63;3.03;;;;;;;4.36;86.23;94663.03;5153905;27;20178;-83
2022/01/08 05:14:44;;;;;;;2.73;2.20;;;;;;;4.61;86.18;94714.91;5153278;27;20190;-83
2022/01/08 05:17:09;;;;;;;2.80;2.10;;;;;;;4.63;86.20;94697.31;5135209;27;20236;-82
2022/01/08 05:19:59;;;;;;;90.00;48.13;;;;;;;4.60;86.48;94700.25;5153576;27;20537;-83
2022/01/08 05:22:25;;;;;;;2.73;2.37;;;;;;;4.46;85.96;94660.19;5153037;27;20199;-83
2022/01/08 05:24:51;;;;;;;4.20;2.00;;;;;;;4.60;85.90;94664.59;5135171;27;20168;-82
2022/01/08 05:27:17;;;;;;;4.13;2.10;;;;;;;4.66;85.53;94674.31;5154078;27;20679;-82
2022/01/08 05:29:46;;;;;;;3.73;2.40;;;;;;;4.80;85.18;94689.16;5135115;27;20235;-83
2022/01/08 05:32:16;;;;;;;4.13;2.70;;;;;;;4.75;85.38;94690.69;5154400;27;20619;-82
2022/01/08 05:34:46;;;;;;;4.30;3.90;;;;;;;4.38;85.92;94658.47;5153919;27;20239;-82
2022/01/08 05:37:12;;;;;;;3.07;1.93;;;;;;;4.29;86.75;94636.06;5153864;27;20212;-83
2022/01/08 05:39:38;;;;;;;3.87;3.57;;;;;;;4.42;86.24;94664.09;5134981;27;20894;-82
2022/01/08 05:42:04;;;;;;;4.17;2.50;;;;;;;4.70;86.26;94685.97;5135087;27;20181;-82
2022/01/08 05:44:29;;;;;;;4.20;2.40;;;;;;;4.42;85.87;94631.03;5153897;27;20152;-82
2022/01/08 05:46:54;;;;;;;2.47;2.27;;;;;;;4.21;85.52;94606.69;5135123;27;20160;-82
2022/01/08 05:49:23;;;;;;;2.23;1.90;;;;;;;4.58;85.53;94656.16;5135010;27;20186;-82
2022/01/08 05:51:48;;;;;;;2.90;2.27;;;;;;;4.44;85.38;94623.88;5153456;27;20258;-83
2022/01/08 05:54:13;;;;;;;2.30;2.10;;;;;;;4.73;85.06;94674.41;5153415;27;20239;-82
2022/01/08 05:56:39;;;;;;;47.53;22.43;;;;;;;4.50;85.68;94640.56;5153560;27;20703;-82
2022/01/08 05:59:04;;;;;;;5.13;4.83;;;;;;;4.70;85.54;94654.69;5153921;27;20163;-82
2022/01/08 06:01:33;;;;;;;3.93;2.10;;;;;;;4.59;85.15;94631.69;5153717;27;20156;-82
2022/01/08 06:03:59;;;;;;;2.83;2.17;;;;;;;4.77;85.37;94670.44;5153649;27;20163;-82
2022/01/08 06:06:24;;;;;;;3.37;2.00;;;;;;;5.00;85.01;94680.78;5152300;27;20168;-81
2022/01/08 06:08:49;;;;;;;2.20;1.90;;;;;;;4.65;84.88;94646.63;5151193;27;20168;-81
2022/01/08 06:11:18;;;;;;;2.03;1.87;;;;;;;4.83;85.43;94680.97;5154595;27;20194;-81
2022/01/08 06:13:43;;;;;;;2.77;2.17;;;;;;;4.91;85.19;94677.47;5156552;27;20203;-81
2022/01/08 06:16:10;;;;;;;2.67;1.90;;;;;;;4.80;85.35;94652.63;5138855;27;20299;-81
2022/01/08 06:18:36;;;;;;;2.70;1.87;;;;;;;4.99;85.19;94673.94;5151247;27;20674;-81
2022/01/08 06:21:03;;;;;;;2.43;1.80;;;;;;;4.67;85.76;94662.09;5136517;27;20180;-81
2022/01/08 06:23:29;;;;;;;2.30;1.90;;;;;;;4.62;86.04;94656.59;5136546;27;20297;-81
2022/01/08 06:25:54;;;;;;;1.90;1.73;;;;;;;4.85;85.98;94684.19;5136899;27;20255;-81
2022/01/08 06:28:20;;;;;;;3.93;1.90;;;;;;;4.91;85.91;94683.47;5136419;27;20229;-81
2022/01/08 06:30:47;;;;;;;1.50;1.40;;;;;;;4.75;85.39;94630.72;5136341;27;20284;-81
2022/01/08 06:33:14;;;;;;;3.53;1.97;;;;;;;4.81;85.13;94629.97;5117657;27;20617;-81
2022/01/08 06:35:40;;;;;;;8.00;7.50;;;;;;;4.88;85.31;94654.34;5136157;27;20165;-81
2022/01/08 06:38:05;;;;;;;3.10;1.90;;;;;;;5.07;85.10;94672.06;5136228;27;20181;-82
2022/01/08 06:40:32;;;;;;;4.27;2.10;;;;;;;5.09;85.33;94674.47;5136317;27;20156;-82
2022/01/08 06:42:57;;;;;;;2.07;1.77;;;;;;;4.75;85.10;94620.28;5135937;27;20168;-81
2022/01/08 06:45:23;;;;;;;1.93;1.50;;;;;;;5.07;85.17;94650.38;5136127;27;20163;-82
2022/01/08 06:47:48;;;;;;;2.07;1.87;;;;;;;5.24;84.79;94664.81;5136062;27;20556;-81
2022/01/08 06:50:13;;;;;;;1.80;1.70;;;;;;;5.26;84.64;94662.84;5135974;27;20643;-82
2022/01/08 06:52:39;;;;;;;3.07;1.70;;;;;;;5.17;84.53;94650.91;5135850;27;20183;-81
2022/01/08 06:55:06;;;;;;;1.93;1.67;;;;;;;5.11;84.63;94649.00;5135812;27;20217;-82
2022/01/08 06:57:32;;;;;;;2.53;2.00;;;;;;;4.80;84.79;94607.50;5135724;27;20263;-82
2022/01/08 06:59:57;;;;;;;2.03;1.67;;;;;;;5.06;85.07;94652.16;5135764;27;20260;-82
2022/01/08 07:02:23;;;;;;;1.53;1.40;;;;;;;5.14;84.71;94669.50;5135885;27;20156;-81
2022/01/08 07:04:48;;;;;;;2.40;1.77;;;;;;;5.10;85.15;94674.28;5135629;27;20161;-81
2022/01/08 07:07:16;;;;;;;1.90;1.67;;;;;;;5.07;85.35;94672.06;5135468;27;20183;-82
2022/01/08 07:09:44;;;;;;;2.53;1.90;;;;;;;5.04;85.33;94664.56;5117183;27;20168;-82
2022/01/08 07:12:10;;;;;;;1.97;1.80;;;;;;;5.08;85.29;94665.03;5117061;27;20176;-81
2022/01/08 07:14:36;;;;;;;2.50;1.90;;;;;;;4.98;85.31;94647.06;5117344;27;20160;-82
2022/01/08 07:17:04;;;;;;;2.00;1.83;;;;;;;5.00;84.96;94628.63;5135285;27;20275;-81
2022/01/08 07:19:30;;;;;;;2.53;1.90;;;;;;;5.17;84.24;94630.84;5117258;27;20164;-82
2022/01/08 07:21:55;;;;;;;3.43;1.77;;;;;;;5.22;84.10;94638.09;5134490;27;20160;-83
2022/01/08 07:24:21;;;;;;;2.80;1.90;;;;;;;5.20;83.67;94625.25;5116602;27;20172;-82
2022/01/08 07:26:46;;;;;;;2.30;1.50;;;;;;;5.00;83.90;94612.97;5135328;27;20176;-81
2022/01/08 07:29:11;;;;;;;5.47;1.83;;;;;;;5.36;84.07;94668.59;5135476;27;20165;-83
2022/01/08 07:31:37;;;;;;;3.63;2.27;;;;;;;5.30;83.82;94640.59;5135320;27;20216;-83
2022/01/08 07:34:02;;;;;;;60.67;18.10;;;;;;;5.02;84.25;94617.00;5135021;27;20164;-82
2022/01/08 07:36:28;;;;;;;2.80;1.90;;;;;;;5.39;84.39;94656.97;5116926;27;20191;-83
2022/01/08 07:38:53;;;;;;;2.43;1.90;;;;;;;5.07;84.15;94616.47;5135233;27;20277;-82
2022/01/08 07:41:19;;;;;;;2.20;1.77;;;;;;;5.17;83.79;94612.56;5117047;27;20168;-82
2022/01/08 07:43:44;;;;;;;3.63;1.53;;;;;;;5.42;83.86;94664.44;5134828;27;20183;-81
2022/01/08 07:46:10;;;;;;;5.70;2.10;;;;;;;5.32;84.04;94644.66;5134766;27;20191;-82
2022/01/08 07:48:35;;;;;;;1.87;1.70;;;;;;;5.23;84.29;94624.88;5134991;27;20152;-85
2022/01/08 07:51:01;;;;;;;3.30;1.93;;;;;;;5.39;83.22;94618.63;5116699;27;20177;-83
2022/01/08 07:53:26;;;;;;;2.07;1.60;;;;;;;5.56;82.45;94629.63;5134668;27;20168;-85
2022/01/08 07:55:52;;;;;;;2.10;1.60;;;;;;;5.64;81.83;94625.09;5134936;27;20243;-84
2022/01/08 07:58:20;;;;;;;3.63;2.13;;;;;;;5.83;82.02;94626.28;5134590;27;20181;-83
2022/01/08 08:00:47;;;;;;;2.10;1.90;;;;;;;5.88;80.76;94634.41;5134507;27;20170;-83
2022/01/08 08:03:13;;;;;;;4.87;2.20;;;;;;;5.80;80.87;94610.19;5134783;27;20157;-84
2022/01/08 08:05:38;;;;;;;2.83;1.90;;;;;;;5.83;80.22;94613.22;5133166;27;20232;-83
2022/01/08 08:08:08;;;;;;;1.83;1.60;;;;;;;6.22;79.60;94656.41;5134437;27;20169;-84
2022/01/08 08:10:33;;;;;;;2.63;1.80;;;;;;;5.92;79.45;94603.50;5115456;27;20187;-84
2022/01/08 08:13:00;;;;;;;2.80;1.80;;;;;;;5.99;79.46;94612.19;5134227;27;20172;-85
2022/01/08 08:15:26;;;;;;;3.43;1.77;;;;;;;6.09;78.79;94615.28;5134330;27;20152;-82
2022/01/08 08:17:53;;;;;;;6.57;1.87;;;;;;;6.54;78.01;94670.72;5134143;27;20204;-82
2022/01/08 08:20:18;;;;;;;2.03;1.60;;;;;;;6.79;77.23;94664.84;5134076;27;20177;-82
2022/01/08 08:22:44;;;;;;;2.40;1.67;;;;;;;6.62;76.18;94608.63;5115667;27;20187;-84
2022/01/08 08:25:12;;;;;;;2.37;1.80;;;;;;;6.87;76.26;94644.78;5134656;27;20179;-84
2022/01/08 08:27:39;;;;;;;2.90;1.83;;;;;;;6.76;76.70;94654.75;5134338;27;20161;-85
2022/01/08 08:30:06;;;;;;;2.13;1.67;;;;;;;6.92;76.70;94651.03;5133901;27;20273;-82
2022/01/08 08:32:32;;;;;;;2.03;1.63;;;;;;;6.66;75.95;94588.13;5134566;27;20156;-83
2022/01/08 08:34:58;;;;;;;1.67;1.57;;;;;;;7.07;75.29;94635.22;5132892;27;21018;-82
2022/01/08 08:37:24;;;;;;;1.83;1.43;;;;;;;7.24;74.73;94643.53;5134092;27;20188;-83
2022/01/08 08:39:49;;;;;;;2.17;1.60;;;;;;;7.43;74.49;94650.66;5115514;27;20187;-82
2022/01/08 08:42:15;;;;;;;4.03;1.57;;;;;;;7.16;74.45;94606.06;5133733;27;20641;-82
2022/01/08 08:44:41;;;;;;;3.73;1.97;;;;;;;7.39;74.30;94626.69;5133619;27;20638;-83
2022/01/08 08:47:07;;;;;;;2.37;1.97;;;;;;;7.75;73.19;94639.47;5149556;27;20168;-82
2022/01/08 08:49:37;;;;;;;3.67;1.57;;;;;;;7.61;73.47;94648.28;5115158;27;20701;-83
2022/01/08 08:52:03;;;;;;;2.43;1.60;;;;;;;7.63;73.41;94624.53;5143033;27;20183;-84
2022/01/08 08:54:34;;;;;;;2.77;1.57;;;;;;;7.70;73.66;94620.91;5135932;27;20258;-84
2022/01/08 08:57:02;;;;;;;2.30;1.50;;;;;;;7.75;72.18;94596.75;5153945;27;20206;-83
2022/01/08 08:59:27;;;;;;;1.47;1.30;;;;;;;7.96;71.88;94599.16;5154252;27;20170;-83
2022/01/08 09:01:54;;;;;;;4.50;1.90;;;;;;;8.41;70.70;94623.81;5154080;27;20238;-82
2022/01/08 09:04:22;;;;;;;2.90;1.63;;;;;;;8.35;70.19;94629.88;5154067;27;20685;-82
2022/01/08 09:06:50;;;;;;;3.80;1.50;;;;;;;8.35;69.60;94601.03;5135506;27;20198;-83
2022/01/08 09:09:15;;;;;;;2.20;1.73;;;;;;;8.37;70.32;94612.13;5135552;27;20167;-83
2022/01/08 09:11:41;;;;;;;5.13;1.67;;;;;;;8.38;70.01;94602.44;5153943;27;20164;-83
2022/01/08 09:14:07;;;;;;;3.87;1.80;;;;;;;8.33;70.05;94613.53;5153550;27;20178;-83
2022/01/08 09:16:33;;;;;;;3.87;1.60;;;;;;;8.05;70.55;94591.91;5153666;27;20167;-83
2022/01/08 09:18:59;;;;;;;3.17;1.43;;;;;;;7.68;71.43;94567.94;5146968;27;20203;-82
2022/01/08 09:21:27;;;;;;;1.73;1.57;;;;;;;7.76;71.92;94575.59;5134966;27;20572;-83
2022/01/08 09:23:53;;;;;;;3.77;2.23;;;;;;;7.96;72.40;94615.69;5153813;27;20232;-82
2022/01/08 09:26:21;;;;;;;3.13;1.73;;;;;;;7.73;72.54;94583.03;5154129;27;20172;-83
2022/01/08 09:28:47;;;;;;;2.47;1.80;;;;;;;7.95;72.11;94592.34;5153719;27;20159;-85
2022/01/08 09:31:17;;;;;;;2.03;1.40;;;;;;;7.93;72.32;94597.78;5153313;27;20223;-83
2022/01/08 09:33:45;;;;;;;2.90;1.97;;;;;;;7.69;72.58;94590.50;5134813;27;20603;-83
2022/01/08 09:36:10;;;;;;;2.57;1.60;;;;;;;7.74;72.95;94587.28;5150443;27;20624;-82
2022/01/08 09:38:36;;;;;;;2.80;2.03;;;;;;;7.58;73.15;94563.06;5152507;27;20245;-81
2022/01/08 09:41:03;;;;;;;2.37;1.67;;;;;;;7.44;72.83;94555.38;5153170;27;20171;-82
2022/01/08 09:43:29;;;;;;;2.60;1.93;;;;;;;7.20;74.00;94562.78;5153327;27;20254;-82
2022/01/08 09:45:57;;;;;;;2.23;2.03;;;;;;;6.86;75.72;94522.81;5155581;27;20593;-83
2022/01/08 09:48:23;;;;;;;2.13;1.80;;;;;;;6.92;75.38;94525.44;5157486;27;20185;-84
2022/01/08 09:50:48;;;;;;;2.50;2.10;;;;;;;7.08;75.25;94530.34;5138766;27;20646;-84
2022/01/08 09:53:14;;;;;;;3.87;2.00;;;;;;;7.10;75.24;94537.97;5138772;27;20178;-85
2022/01/08 09:55:39;;;;;;;4.37;1.73;;;;;;;6.83;75.20;94509.13;5138944;27;20179;-85
2022/01/08 09:58:05;;;;;;;2.53;2.10;;;;;;;6.87;74.97;94513.97;5157701;27;20192;-88
2022/01/08 10:00:33;;;;;;;3.63;1.77;;;;;;;7.23;74.71;94555.53;5134163;27;20496;-81
2022/01/08 10:03:14;;;;;;;2.13;1.70;;;;;;;7.07;75.05;94556.72;5155347;27;20260;-82
2022/01/08 10:05:46;;;;;;;5.40;2.00;;;;;;;7.06;75.49;94550.66;5150541;27;20202;-83
2022/01/08 10:08:15;;;;;;;3.23;2.20;;;;;;;7.09;75.76;94539.78;5149509;27;20179;-82
2022/01/08 10:10:41;;;;;;;3.43;2.30;;;;;;;6.95;76.06;94524.25;5156743;27;20168;-83
2022/01/08 10:13:23;;;;;;;1.80;1.70;;;;;;;6.88;76.17;94524.25;5156724;27;20665;-82
2022/01/08 10:18:42;;;;;;;3.13;2.03;;;;;;;6.81;76.97;94526.84;5154707;27;20248;-82
2022/01/08 10:21:36;;;;;;;1.53;1.43;;;;;;;6.86;75.97;94528.84;5156846;27;20170;-82
2022/01/08 10:24:08;;;;;;;2.40;1.93;;;;;;;6.77;76.42;94503.88;5150970;27;20251;-81
2022/01/08 10:26:45;;;;;;;3.93;1.83;;;;;;;6.80;76.67;94525.22;5157386;27;20191;-83
2022/01/08 10:29:26;;;;;;;8.40;1.90;;;;;;;6.33;76.93;94447.59;5134022;27;20191;-80
2022/01/08 10:31:56;;;;;;;2.00;1.80;;;;;;;6.72;77.14;94524.59;5152209;27;20231;-81
2022/01/08 10:34:30;;;;;;;3.43;2.03;;;;;;;6.92;77.09;94517.59;5133956;27;20187;-80
2022/01/08 10:36:55;;;;;;;2.63;2.10;;;;;;;7.00;76.58;94514.84;5136416;27;20171;-81
2022/01/08 10:39:28;;;;;;;1.60;1.50;;;;;;;6.78;76.83;94487.19;5158369;27;20191;-80
2022/01/08 10:41:56;;;;;;;5.40;2.00;;;;;;;6.96;76.96;94510.16;5157801;27;20670;-81
2022/01/08 10:44:25;;;;;;;1.97;1.83;;;;;;;6.00;76.74;94371.66;5122480;27;20660;-83
2022/01/08 10:46:59;;;;;;;3.63;2.23;;;;;;;6.47;77.31;94442.41;5156860;27;20597;-83
2022/01/08 10:49:39;;;;;;;2.33;2.10;;;;;;;7.05;76.36;94495.91;5140603;27;20167;-82
2022/01/08 10:52:07;;;;;;;2.50;2.20;;;;;;;7.17;75.85;94523.94;5152953;27;20228;-81
2022/01/08 10:54:35;;;;;;;3.33;2.00;;;;;;;7.06;75.88;94500.94;5155011;27;20236;-82
2022/01/08 10:57:03;;;;;;;2.77;1.93;;;;;;;7.04;76.09;94481.22;5152985;27;20555;-82
2022/01/08 10:59:30;;;;;;;7.30;2.47;;;;;;;7.03;76.68;94495.28;5154034;27;20232;-85
2022/01/08 11:02:02;;;;;;;3.27;2.53;;;;;;;7.10;76.35;94483.84;5153145;27;20206;-82
2022/01/08 11:04:52;;;;;;;4.93;2.17;;;;;;;7.13;75.61;94487.88;5155096;27;20723;-82
2022/01/08 11:07:17;;;;;;;2.33;2.13;;;;;;;7.27;75.61;94488.69;5152580;27;20240;-82
2022/01/08 11:09:45;;;;;;;3.90;2.27;;;;;;;7.10;75.20;94472.56;5153118;27;20262;-82
2022/01/08 11:12:17;;;;;;;3.97;2.47;;;;;;;7.24;75.05;94482.06;5135596;27;20199;-83
2022/01/08 11:17:31;;;;;;;2.07;1.80;;;;;;;6.56;75.85;94402.84;5154974;27;20737;-83
2022/01/08 11:20:06;;;;;;;2.57;1.93;;;;;;;6.89;76.18;94452.59;5152688;27;20169;-83
2022/01/08 11:22:33;;;;;;;3.40;2.30;;;;;;;6.91;76.28;94437.53;5139872;27;20249;-84
2022/01/08 11:25:03;;;;;;;1.90;1.70;;;;;;;7.04;75.90;94465.50;5154692;27;20547;-82
2022/01/08 11:27:37;;;;;;;2.57;1.87;;;;;;;7.16;76.22;94483.06;5136195;27;20212;-83
2022/01/08 11:30:13;;;;;;;4.07;2.07;;;;;;;7.15;76.02;94489.28;5153658;27;20270;-83
2022/01/08 11:32:39;;;;;;;3.63;1.77;;;;;;;7.14;76.29;94479.81;5153471;27;20176;-83
2022/01/08 11:35:07;;;;;;;2.37;2.17;;;;;;;7.00;76.29;94454.66;5153134;27;20531;-83
2022/01/08 11:37:34;;;;;;;3.80;2.27;;;;;;;7.22;76.53;94470.16;5153415;27;20677;-83
2022/01/08 11:40:03;;;;;;;5.60;2.50;;;;;;;7.07;75.78;94429.28;5153553;27;20633;-83
2022/01/08 11:42:34;;;;;;;5.90;3.07;;;;;;;7.19;76.62;94464.31;5150289;27;20167;-83
2022/01/08 11:45:01;;;;;;;3.97;2.33;;;;;;;7.13;75.99;94438.94;5153412;27;20716;-83
2022/01/08 11:47:29;;;;;;;6.27;2.30;;;;;;;7.23;75.90;94472.59;5153360;27;20189;-84
2022/01/08 11:49:56;;;;;;;2.83;2.20;;;;;;;6.92;77.42;94426.03;5130640;27;20184;-83
2022/01/08 11:52:23;;;;;;;3.17;2.70;;;;;;;6.80;78.11;94396.25;5154378;27;20232;-80
2022/01/08 11:54:52;;;;;;;2.77;2.50;;;;;;;6.85;76.62;94391.22;5150750;27;20164;-82
2022/01/08 11:57:17;;;;;;;4.37;2.53;;;;;;;7.31;75.77;94440.97;5153282;27;20188;-84
2022/01/08 11:59:46;;;;;;;2.23;2.03;;;;;;;7.29;76.00;94439.56;5152310;27;20700;-83
2022/01/08 12:02:13;;;;;;;2.20;2.00;;;;;;;7.36;75.39;94446.41;5152862;27;20228;-83
2022/01/08 12:04:41;;;;;;;3.00;2.50;;;;;;;7.28;76.80;94430.09;5137119;27;20172;-84